createdAt,value
2019-06-26T03:08:41.235Z,8.57
2019-06-26T03:12:06.016Z,8.10
2019-06-26T03:15:04.556Z,9.40
2019-06-26T03:18:02.383Z,11.33
2019-06-26T03:21:25.651Z,11.87
2019-06-26T03:24:34.217Z,10.40
2019-06-26T03:27:33.755Z,9.37
2019-06-26T03:30:19.874Z,10.67
2019-06-26T03:32:47.487Z,10.20
2019-06-26T03:35:18.176Z,13.07
2019-06-26T03:37:48.877Z,11.30
2019-06-26T03:40:20.008Z,12.67
2019-06-26T03:42:50.342Z,13.73
2019-06-26T03:45:25.510Z,13.53
2019-06-26T03:47:53.485Z,14.37
2019-06-26T03:50:23.813Z,11.93
2019-06-26T03:52:54.398Z,12.73
2019-06-26T03:55:25.069Z,12.97
2019-06-26T03:57:55.651Z,12.90
2019-06-26T04:00:40.876Z,14.17
2019-06-26T04:03:11.431Z,13.53
2019-06-26T04:05:42.249Z,13.93
2019-06-26T04:08:13.171Z,14.80
2019-06-26T04:10:43.770Z,12.83
2019-06-26T04:13:14.448Z,14.33
2019-06-26T04:15:45.064Z,13.77
2019-06-26T04:18:15.827Z,12.80
2019-06-26T04:20:46.239Z,12.63
2019-06-26T04:23:16.592Z,14.10
2019-06-26T04:25:46.937Z,13.23
2019-06-26T04:28:17.809Z,12.73
2019-06-26T04:30:49.150Z,11.60
2019-06-26T04:33:19.525Z,13.57
2019-06-26T04:35:49.874Z,13.47
2019-06-26T04:38:20.213Z,12.73
2019-06-26T04:40:50.833Z,11.40
2019-06-26T04:43:21.181Z,13.20
2019-06-26T04:45:58.309Z,13.10
2019-06-26T04:48:23.860Z,13.50
2019-06-26T04:50:54.214Z,13.80
2019-06-26T04:53:24.908Z,13.83
2019-06-26T04:55:55.515Z,15.60
2019-06-26T04:58:26.141Z,16.17
2019-06-26T05:00:56.478Z,11.73
2019-06-26T05:03:27.249Z,13.10
2019-06-26T05:05:58.034Z,12.87
2019-06-26T05:08:28.365Z,13.70
2019-06-26T05:10:58.747Z,14.63
2019-06-26T05:13:29.066Z,13.10
2019-06-26T05:16:13.830Z,13.40
2019-06-26T05:18:32.415Z,16.13
2019-06-26T05:21:03.058Z,18.37
2019-06-26T05:23:34.003Z,14.60
2019-06-26T05:26:04.379Z,16.07
2019-06-26T05:28:35.371Z,17.73
2019-06-26T05:31:05.771Z,23.70
2019-06-26T05:33:36.478Z,22.43
2019-06-26T05:36:07.348Z,24.40
2019-06-26T05:38:38.118Z,23.73
2019-06-26T05:41:07.859Z,26.37
2019-06-26T05:43:38.204Z,27.73
2019-06-26T05:46:08.693Z,28.23
2019-06-26T05:48:39.574Z,27.33
2019-06-26T05:51:09.924Z,26.40
2019-06-26T05:53:40.607Z,24.50
2019-06-26T05:56:11.230Z,23.07
2019-06-26T05:58:41.720Z,24.37
2019-06-26T06:01:12.112Z,21.93
2019-06-26T06:03:42.922Z,24.60
2019-06-26T06:06:13.869Z,25.33
2019-06-26T06:08:44.490Z,26.40
2019-06-26T06:11:15.157Z,25.97
2019-06-26T06:13:45.757Z,27.17
2019-06-26T06:16:16.733Z,26.57
2019-06-26T06:18:47.030Z,26.00
2019-06-26T06:21:17.715Z,25.07
2019-06-26T06:23:48.042Z,26.50
2019-06-26T06:26:18.439Z,26.73
2019-06-26T06:28:48.800Z,25.97
2019-06-26T06:31:19.519Z,24.90
2019-06-26T06:33:49.843Z,25.47
2019-06-26T06:36:20.432Z,26.83
2019-06-26T06:38:50.807Z,26.37
2019-06-26T06:41:21.596Z,25.53
2019-06-26T06:43:52.000Z,25.67
2019-06-26T06:46:22.335Z,24.03
2019-06-26T06:48:52.692Z,26.90
2019-06-26T06:51:23.090Z,24.17
2019-06-26T06:53:53.793Z,28.63
2019-06-26T06:56:24.119Z,28.40
2019-06-26T06:58:54.574Z,28.67
2019-06-26T07:01:25.013Z,28.10
2019-06-26T07:03:55.661Z,26.90
2019-06-26T07:06:26.283Z,27.00
2019-06-26T07:08:56.644Z,27.37
2019-06-26T07:11:27.480Z,27.70
2019-06-26T07:13:57.916Z,28.43
2019-06-26T07:16:28.405Z,29.37
2019-06-26T07:18:58.801Z,28.43
2019-06-26T07:21:29.165Z,27.67
2019-06-26T07:23:59.465Z,28.27
2019-06-26T07:26:30.215Z,30.30
2019-06-26T07:29:00.866Z,27.93
2019-06-26T07:31:31.477Z,28.53
2019-06-26T07:34:02.377Z,26.17
2019-06-26T07:36:33.219Z,28.27
2019-06-26T07:39:04.690Z,25.63
2019-06-26T07:41:35.148Z,25.70
2019-06-26T07:44:05.518Z,28.17
2019-06-26T07:46:35.871Z,23.77
2019-06-26T07:49:06.508Z,26.37
2019-06-26T07:51:36.845Z,23.37
2019-06-26T07:54:07.144Z,20.07
2019-06-26T07:56:37.821Z,21.93
2019-06-26T07:59:08.186Z,21.57
2019-06-26T08:01:39.221Z,19.50
2019-06-26T08:04:10.173Z,16.60
2019-06-26T08:06:40.859Z,19.70
2019-06-26T08:09:11.371Z,15.97
2019-06-26T08:11:42.162Z,19.60
2019-06-26T08:14:12.508Z,17.13
2019-06-26T08:16:43.359Z,16.40
2019-06-26T08:19:13.708Z,14.90
2019-06-26T08:21:46.742Z,12.53
2019-06-26T08:24:16.909Z,16.63
2019-06-26T08:26:47.311Z,16.40
2019-06-26T08:29:17.925Z,18.43
2019-06-26T08:31:48.284Z,19.37
2019-06-26T08:34:18.728Z,18.67
2019-06-26T08:36:49.160Z,15.17
2019-06-26T08:39:19.811Z,17.40
2019-06-26T08:41:50.875Z,22.33
2019-06-26T08:44:21.764Z,18.53
2019-06-26T08:46:52.132Z,14.87
2019-06-26T08:49:25.965Z,19.40
2019-06-26T08:51:55.419Z,18.50
2019-06-26T08:54:26.396Z,16.50
2019-06-26T08:56:56.811Z,16.17
2019-06-26T08:59:27.487Z,16.17
2019-06-26T09:01:58.133Z,16.73
2019-06-26T09:04:29.034Z,13.20
2019-06-26T09:06:59.329Z,17.30
2019-06-26T09:09:29.968Z,19.07
2019-06-26T09:12:00.803Z,20.37
2019-06-26T09:14:31.226Z,20.23
2019-06-26T09:17:01.636Z,16.07
2019-06-26T09:19:31.987Z,17.33
2019-06-26T09:22:02.363Z,15.63
2019-06-26T09:24:32.812Z,16.20
2019-06-26T09:27:03.173Z,18.20
2019-06-26T09:29:34.122Z,18.50
2019-06-26T09:32:05.023Z,15.10
2019-06-26T09:34:35.689Z,15.83
2019-06-26T09:37:05.992Z,15.97
2019-06-26T09:39:37.224Z,16.50
2019-06-26T09:42:08.307Z,23.90
2019-06-26T09:44:38.655Z,14.60
2019-06-26T09:47:08.984Z,18.60
2019-06-26T09:49:39.376Z,23.60
2019-06-26T09:52:09.713Z,22.20
2019-06-26T09:54:40.624Z,20.90
2019-06-26T09:57:11.008Z,20.23
2019-06-26T09:59:41.350Z,19.30
2019-06-26T10:02:11.750Z,19.30
2019-06-26T10:04:42.335Z,21.17
2019-06-26T10:07:13.689Z,22.27
2019-06-26T10:09:44.003Z,22.53
2019-06-26T10:12:14.881Z,29.43
2019-06-26T10:14:47.830Z,30.97
2019-06-26T10:17:17.373Z,25.47
2019-06-26T10:19:47.730Z,33.53
2019-06-26T10:22:18.082Z,36.93
2019-06-26T10:24:48.822Z,36.93
2019-06-26T10:27:19.188Z,43.87
2019-06-26T10:29:49.580Z,43.30
2019-06-26T10:32:19.949Z,42.33
2019-06-26T10:34:50.673Z,42.60
2019-06-26T10:37:21.038Z,48.70
2019-06-26T10:39:51.362Z,46.23
2019-06-26T10:42:21.737Z,39.23
2019-06-26T10:44:52.672Z,35.30
2019-06-26T10:47:23.104Z,34.80
2019-06-26T10:49:53.460Z,32.93
2019-06-26T10:52:23.831Z,36.33
2019-06-26T10:54:54.184Z,30.73
2019-06-26T10:57:25.464Z,22.77
2019-06-26T10:59:56.176Z,24.00
2019-06-26T11:02:27.365Z,27.57
2019-06-26T11:04:57.784Z,30.60
2019-06-26T11:07:28.428Z,24.73
2019-06-26T11:09:58.844Z,27.33
2019-06-26T11:12:29.336Z,23.70
2019-06-26T11:14:59.945Z,26.87
2019-06-26T11:17:30.307Z,32.43
2019-06-26T11:20:00.703Z,25.33
2019-06-26T11:22:31.647Z,25.80
2019-06-26T11:25:02.386Z,24.23
2019-06-26T11:27:32.648Z,21.67
2019-06-26T11:30:03.652Z,22.67
2019-06-26T11:32:34.423Z,22.00
2019-06-26T11:35:05.796Z,19.50
2019-06-26T11:37:36.455Z,19.23
2019-06-26T11:40:07.954Z,18.70
2019-06-26T11:42:38.306Z,17.20
2019-06-26T11:45:12.296Z,16.83
2019-06-26T11:47:45.717Z,14.37
2019-06-26T11:50:15.266Z,13.03
2019-06-26T11:52:45.935Z,7.70
2019-06-26T11:55:17.207Z,6.70
2019-06-26T11:57:47.691Z,5.60
2019-06-26T12:00:20.292Z,5.50
2019-06-26T12:02:50.608Z,6.53
2019-06-26T12:05:21.232Z,6.13
2019-06-26T12:07:51.672Z,5.90
2019-06-26T12:10:22.482Z,5.87
2019-06-26T12:12:52.796Z,6.13
2019-06-26T12:15:25.775Z,6.13
2019-06-26T12:17:56.107Z,7.03
2019-06-26T12:20:26.541Z,6.80
2019-06-26T12:22:57.291Z,6.40
2019-06-26T12:25:27.935Z,5.83
2019-06-26T12:27:58.308Z,6.23
2019-06-26T12:30:28.922Z,5.70
2019-06-26T12:33:03.444Z,5.33
2019-06-26T12:35:31.481Z,5.80
2019-06-26T12:38:01.882Z,5.97
2019-06-26T12:40:32.256Z,6.37
2019-06-26T12:43:02.905Z,6.07
2019-06-26T12:45:33.281Z,5.30
2019-06-26T12:48:03.618Z,5.43
2019-06-26T12:50:36.129Z,5.57
2019-06-26T12:53:06.894Z,4.90
2019-06-26T12:55:37.305Z,5.13
2019-06-26T12:58:14.113Z,5.00
2019-06-26T13:00:39.708Z,5.30
2019-06-26T13:03:10.046Z,5.37
2019-06-26T13:05:40.385Z,5.13
2019-06-26T13:08:10.994Z,5.20
2019-06-26T13:10:49.807Z,5.13
2019-06-26T13:13:13.482Z,4.67
2019-06-26T13:15:43.830Z,5.60
2019-06-26T13:18:14.542Z,5.43
2019-06-26T13:20:52.824Z,5.67
2019-06-26T13:23:17.670Z,5.43
2019-06-26T13:25:48.035Z,4.97
2019-06-26T13:28:18.375Z,5.40
2019-06-26T13:30:52.979Z,5.70
2019-06-26T13:33:21.362Z,5.43
2019-06-26T13:35:52.202Z,5.90
2019-06-26T13:38:22.512Z,5.23
2019-06-26T13:40:52.961Z,5.43
2019-06-26T13:43:23.294Z,5.23
2019-06-26T13:45:53.640Z,5.40
2019-06-26T13:48:25.136Z,5.37
2019-06-26T13:51:08.788Z,5.60
2019-06-26T13:53:28.133Z,4.90
2019-06-26T13:55:58.542Z,6.20
2019-06-26T13:58:29.608Z,5.83
2019-06-26T14:00:59.970Z,5.53
2019-06-26T14:03:30.871Z,5.67
2019-06-26T14:06:01.621Z,6.07
2019-06-26T14:08:32.996Z,6.10
2019-06-26T14:11:07.270Z,6.10
2019-06-26T14:13:36.112Z,6.03
2019-06-26T14:16:06.502Z,6.77
2019-06-26T14:18:37.062Z,7.00
2019-06-26T14:21:07.381Z,5.70
2019-06-26T14:23:38.069Z,5.67
2019-06-26T14:26:08.866Z,6.70
2019-06-26T14:28:39.246Z,6.30
2019-06-26T14:31:09.699Z,6.53
2019-06-26T14:33:40.049Z,5.93
2019-06-26T14:36:10.927Z,6.00
2019-06-26T14:38:41.366Z,6.03
2019-06-26T14:41:12.233Z,5.53
2019-06-26T14:43:42.859Z,6.43
2019-06-26T14:46:13.772Z,6.43
2019-06-26T14:48:44.510Z,6.10
2019-06-26T14:51:15.323Z,5.73
2019-06-26T14:53:46.507Z,7.13
2019-06-26T14:56:17.271Z,6.47
2019-06-26T14:58:47.667Z,5.50
2019-06-26T15:01:18.327Z,5.63
2019-06-26T15:03:48.681Z,5.70
2019-06-26T15:06:19.029Z,5.13
2019-06-26T15:08:49.597Z,4.70
2019-06-26T15:11:21.043Z,5.53
2019-06-26T15:13:51.500Z,5.10
2019-06-26T15:16:22.277Z,5.33
2019-06-26T15:18:52.904Z,5.90
2019-06-26T15:21:23.206Z,5.63
2019-06-26T15:23:54.162Z,5.87
2019-06-26T15:26:24.497Z,8.00
2019-06-26T15:28:54.826Z,7.40
2019-06-26T15:31:25.218Z,8.00
2019-06-26T15:33:55.796Z,8.47
2019-06-26T15:36:26.302Z,7.53
2019-06-26T15:38:59.135Z,7.70
2019-06-26T15:41:29.414Z,7.43
2019-06-26T15:43:59.714Z,7.03
2019-06-26T15:46:30.380Z,7.00
2019-06-26T15:49:00.714Z,5.80
2019-06-26T15:51:31.051Z,5.50
2019-06-26T15:54:02.038Z,5.23
2019-06-26T15:56:32.897Z,5.03
2019-06-26T15:59:03.634Z,5.70
2019-06-26T16:01:34.252Z,4.73
2019-06-26T16:04:04.583Z,4.90
2019-06-26T16:06:35.010Z,5.20
2019-06-26T16:09:06.779Z,4.97
2019-06-26T16:11:37.111Z,6.00
2019-06-26T16:14:07.702Z,5.00
2019-06-26T16:16:39.781Z,5.67
2019-06-26T16:19:14.099Z,5.20
2019-06-26T16:21:44.490Z,4.60
2019-06-26T16:24:14.965Z,5.60
2019-06-26T16:26:45.375Z,5.43
2019-06-26T16:29:15.795Z,3.70
2019-06-26T16:31:46.754Z,3.23
2019-06-26T16:34:18.995Z,2.87
2019-06-26T16:36:49.891Z,2.50
2019-06-26T16:39:22.383Z,2.60
2019-06-26T16:41:52.987Z,2.50
2019-06-26T16:44:23.659Z,2.40
2019-06-26T16:46:53.977Z,2.90
2019-06-26T16:49:24.311Z,2.83
2019-06-26T16:51:54.595Z,2.93
2019-06-26T16:54:25.190Z,3.00
2019-06-26T16:56:56.071Z,2.63
2019-06-26T16:59:26.506Z,2.33
2019-06-26T17:01:57.184Z,2.00
2019-06-26T17:04:27.546Z,2.00
2019-06-26T17:06:57.899Z,1.73
2019-06-26T17:09:28.508Z,2.00
2019-06-26T17:11:58.915Z,2.10
2019-06-26T17:14:29.564Z,1.97
2019-06-26T17:17:00.501Z,1.67
2019-06-26T17:19:30.835Z,2.17
2019-06-26T17:22:01.232Z,1.73
2019-06-26T17:24:32.145Z,1.70
2019-06-26T17:27:02.579Z,1.90
2019-06-26T17:29:33.179Z,2.17
2019-06-26T17:32:03.993Z,2.00
2019-06-26T17:34:34.295Z,1.90
2019-06-26T17:37:04.651Z,2.30
2019-06-26T17:39:35.360Z,1.90
2019-06-26T17:42:06.139Z,2.10
2019-06-26T17:44:36.506Z,2.20
2019-06-26T17:47:07.575Z,1.93
2019-06-26T17:49:37.874Z,1.90
2019-06-26T17:52:08.260Z,1.93
2019-06-26T17:54:38.586Z,2.60
2019-06-26T17:57:09.221Z,2.37
2019-06-26T17:59:39.763Z,2.10
2019-06-26T18:02:10.083Z,2.43
2019-06-26T18:04:40.396Z,2.20
2019-06-26T18:07:10.729Z,2.60
2019-06-26T18:09:41.167Z,2.70
2019-06-26T18:12:11.787Z,2.37
2019-06-26T18:14:43.301Z,2.33
2019-06-26T18:17:22.102Z,2.60
2019-06-26T18:19:45.905Z,2.00
2019-06-26T18:22:16.329Z,2.33
2019-06-26T18:24:47.273Z,2.40
2019-06-26T18:27:18.286Z,2.40
2019-06-26T18:29:48.677Z,2.80
2019-06-26T18:32:19.680Z,2.70
2019-06-26T18:34:50.301Z,2.20
2019-06-26T18:37:20.668Z,2.80
2019-06-26T18:39:51.039Z,2.80
2019-06-26T18:42:21.441Z,2.97
2019-06-26T18:44:51.869Z,2.50
2019-06-26T18:47:22.597Z,2.47
2019-06-26T18:49:53.287Z,2.37
2019-06-26T18:52:23.634Z,2.77
2019-06-26T18:54:54.066Z,2.60
2019-06-26T18:57:24.388Z,2.60
2019-06-26T18:59:54.722Z,2.37
2019-06-26T19:02:25.086Z,2.63
2019-06-26T19:04:55.473Z,2.30
2019-06-26T19:07:25.812Z,2.50
2019-06-26T19:09:56.134Z,2.10
2019-06-26T19:12:26.462Z,2.33
2019-06-26T19:14:56.874Z,2.20
2019-06-26T19:17:27.240Z,2.10
2019-06-26T19:19:57.659Z,2.13
2019-06-26T19:22:28.316Z,1.90
2019-06-26T19:24:58.937Z,1.60
2019-06-26T19:27:29.285Z,2.40
2019-06-26T19:29:59.658Z,2.00
2019-06-26T19:32:30.361Z,2.33
2019-06-26T19:35:07.977Z,1.90
2019-06-26T19:37:33.004Z,1.70
2019-06-26T19:40:03.347Z,2.13
2019-06-26T19:42:33.787Z,1.87
2019-06-26T19:45:04.579Z,1.90
2019-06-26T19:47:35.433Z,1.87
2019-06-26T19:50:06.314Z,2.13
2019-06-26T19:52:36.650Z,1.90
2019-06-26T19:55:08.105Z,1.93
2019-06-26T19:57:38.734Z,1.97
2019-06-26T20:00:10.021Z,2.10
2019-06-26T20:02:41.005Z,1.80
2019-06-26T20:05:13.029Z,2.23
2019-06-26T20:07:43.610Z,2.30
2019-06-26T20:10:14.219Z,2.60
2019-06-26T20:12:44.967Z,2.17
2019-06-26T20:15:15.294Z,2.30
2019-06-26T20:17:45.930Z,2.03
2019-06-26T20:20:16.345Z,2.40
2019-06-26T20:22:46.673Z,2.07
2019-06-26T20:25:17.110Z,2.17
2019-06-26T20:27:47.597Z,2.20
2019-06-26T20:30:21.062Z,2.03
2019-06-26T20:32:51.386Z,2.20
2019-06-26T20:35:22.309Z,2.27
2019-06-26T20:37:53.650Z,1.77
2019-06-26T20:40:24.385Z,2.27
2019-06-26T20:42:55.394Z,2.60
2019-06-26T20:45:26.269Z,2.57
2019-06-26T20:47:57.457Z,2.13
2019-06-26T20:50:27.964Z,2.53
2019-06-26T20:52:58.347Z,2.50
2019-06-26T20:55:29.275Z,2.30
2019-06-26T20:57:59.718Z,2.20
2019-06-26T21:00:30.780Z,2.10
2019-06-26T21:03:01.830Z,2.60
2019-06-26T21:05:32.569Z,1.90
2019-06-26T21:08:03.336Z,2.10
2019-06-26T21:10:34.534Z,2.20
2019-06-26T21:13:04.876Z,2.10
2019-06-26T21:15:35.207Z,2.87
2019-06-26T21:18:05.520Z,2.60
2019-06-26T21:20:35.855Z,2.00
2019-06-26T21:23:17.704Z,2.03
2019-06-26T21:25:38.814Z,2.20
2019-06-26T21:28:09.527Z,2.50
2019-06-26T21:30:40.302Z,2.07
2019-06-26T21:33:10.928Z,2.27
2019-06-26T21:35:41.217Z,2.40
2019-06-26T21:39:26.228Z,2.60
2019-06-26T21:41:56.911Z,2.23
2019-06-26T21:44:27.269Z,2.23
2019-06-26T21:46:58.204Z,2.33
2019-06-26T21:49:28.675Z,2.50
2019-06-26T21:51:59.271Z,2.50
2019-06-26T21:54:29.605Z,2.10
2019-06-26T21:57:00.119Z,2.23
2019-06-26T21:59:32.349Z,1.93
2019-06-26T22:02:02.875Z,2.20
2019-06-26T22:04:33.443Z,2.37
2019-06-26T22:07:03.925Z,2.10
2019-06-26T22:09:34.339Z,2.47
2019-06-26T22:12:04.693Z,2.10
2019-06-26T22:14:37.000Z,2.10
2019-06-26T22:17:07.397Z,2.60
2019-06-26T22:19:38.074Z,2.60
2019-06-26T22:22:08.453Z,2.00
2019-06-26T22:24:45.101Z,2.47
2019-06-26T22:27:15.523Z,2.50
2019-06-26T22:29:46.278Z,2.77
2019-06-26T22:32:16.608Z,2.33
2019-06-26T22:34:48.174Z,2.67
2019-06-26T22:37:22.025Z,2.20
2019-06-26T22:39:52.921Z,2.87
2019-06-26T22:42:27.021Z,3.43
2019-06-26T22:44:57.517Z,3.00
2019-06-26T22:47:27.988Z,2.97
2019-06-26T22:49:58.314Z,2.57
2019-06-26T22:52:29.140Z,2.50
2019-06-26T22:54:59.783Z,3.07
2019-06-26T22:57:30.264Z,3.13
2019-06-26T23:00:00.863Z,3.30
2019-06-26T23:02:31.207Z,3.00
2019-06-26T23:05:01.891Z,3.67
2019-06-26T23:07:32.365Z,3.17
2019-06-26T23:10:03.129Z,3.53
2019-06-26T23:12:33.717Z,2.83
2019-06-26T23:15:04.222Z,3.00
2019-06-26T23:17:34.631Z,3.10
2019-06-26T23:20:05.563Z,2.80
2019-06-26T23:22:36.012Z,3.10
2019-06-26T23:25:06.885Z,3.30
2019-06-26T23:27:37.652Z,2.93
2019-06-26T23:30:18.435Z,3.20
2019-06-26T23:32:54.815Z,3.53
2019-06-26T23:35:27.228Z,3.93
2019-06-26T23:37:59.918Z,4.10
2019-06-26T23:40:30.705Z,3.67
2019-06-26T23:43:01.036Z,3.53
2019-06-26T23:45:31.363Z,4.50
2019-06-26T23:48:02.084Z,4.10
2019-06-26T23:50:32.460Z,3.63
2019-06-26T23:53:02.852Z,4.20
2019-06-26T23:55:33.560Z,3.37
2019-06-26T23:58:04.492Z,3.60
